createdAt,value
2019-01-09T00:00:44.804Z,17.23
2019-01-09T00:03:13.572Z,11.53
2019-01-09T00:05:42.511Z,9.30
2019-01-09T00:08:11.602Z,16.10
2019-01-09T00:10:40.482Z,9.57
2019-01-09T00:13:09.377Z,17.07
2019-01-09T00:15:38.239Z,11.73
2019-01-09T00:18:07.556Z,8.77
2019-01-09T00:20:36.444Z,5.47
2019-01-09T00:23:05.470Z,3.53
2019-01-09T00:25:34.306Z,2.80
2019-01-09T00:28:03.253Z,7.20
2019-01-09T00:30:32.197Z,5.60
2019-01-09T00:33:01.047Z,6.67
2019-01-09T00:35:37.284Z,5.27
2019-01-09T00:38:00.895Z,5.53
2019-01-09T00:40:30.820Z,7.47
2019-01-09T00:42:59.703Z,5.63
2019-01-09T00:45:28.577Z,6.63
2019-01-09T00:47:57.527Z,6.17
2019-01-09T00:50:26.400Z,4.43
2019-01-09T00:52:55.438Z,3.53
2019-01-09T00:55:24.380Z,1.77
2019-01-09T00:57:53.697Z,2.13
2019-01-09T01:00:22.908Z,1.77
2019-01-09T01:03:34.384Z,1.90
2019-01-09T01:06:31.584Z,1.50
2019-01-09T01:09:30.137Z,1.33
2019-01-09T01:12:34.623Z,4.43
2019-01-09T01:15:49.777Z,3.60
2019-01-09T01:19:06.058Z,3.43
2019-01-09T01:21:55.373Z,3.73
2019-01-09T01:25:06.570Z,4.80
2019-01-09T01:27:44.946Z,3.70
2019-01-09T01:30:41.009Z,4.70
2019-01-09T01:33:43.189Z,12.27
2019-01-09T01:36:49.167Z,7.03
2019-01-09T01:39:46.091Z,8.60
2019-01-09T01:43:23.745Z,5.73
2019-01-09T01:46:17.799Z,4.13
2019-01-09T01:49:16.764Z,4.90
2019-01-09T01:52:29.888Z,6.17
2019-01-09T01:55:25.405Z,5.57
2019-01-09T01:58:49.559Z,6.30
2019-01-09T02:02:07.691Z,6.40
2019-01-09T02:05:03.554Z,6.73
2019-01-09T02:07:55.081Z,10.23
2019-01-09T02:11:00.158Z,7.83
2019-01-09T02:13:52.796Z,11.57
2019-01-09T02:17:03.386Z,12.07
2019-01-09T02:19:47.821Z,10.00
2019-01-09T02:22:44.011Z,15.13
2019-01-09T02:25:41.384Z,14.17
2019-01-09T02:28:45.271Z,7.33
2019-01-09T02:31:35.891Z,8.40
2019-01-09T02:34:04.677Z,11.93
2019-01-09T02:36:33.524Z,7.47
2019-01-09T02:39:03.205Z,5.63
2019-01-09T02:41:32.481Z,7.07
2019-01-09T02:44:01.244Z,7.53
2019-01-09T02:46:30.091Z,9.37
2019-01-09T02:48:58.893Z,6.60
2019-01-09T02:51:27.736Z,13.67
2019-01-09T02:53:57.104Z,12.67
2019-01-09T02:56:26.090Z,9.00
2019-01-09T02:58:54.929Z,8.93
2019-01-09T03:01:23.740Z,9.80
2019-01-09T03:03:52.812Z,11.53
2019-01-09T03:06:23.104Z,9.47
2019-01-09T03:08:52.290Z,8.13
2019-01-09T03:11:21.448Z,8.27
2019-01-09T03:13:50.458Z,5.83
2019-01-09T03:16:19.253Z,4.57
2019-01-09T03:18:48.041Z,3.97
2019-01-09T03:21:16.812Z,6.47
2019-01-09T03:23:45.821Z,5.87
2019-01-09T03:26:14.630Z,7.03
2019-01-09T03:28:43.447Z,7.93
2019-01-09T03:31:12.248Z,7.23
2019-01-09T03:33:42.511Z,12.10
2019-01-09T03:36:11.409Z,9.97
2019-01-09T03:38:40.303Z,11.77
2019-01-09T03:41:09.152Z,8.63
2019-01-09T03:43:37.939Z,11.90
2019-01-09T03:46:06.796Z,12.03
2019-01-09T03:48:35.653Z,13.60
2019-01-09T03:51:04.491Z,12.63
2019-01-09T03:53:33.265Z,8.07
2019-01-09T03:56:04.400Z,8.73
2019-01-09T03:58:33.432Z,3.43
2019-01-09T04:01:02.297Z,5.00
2019-01-09T04:03:31.085Z,4.43
2019-01-09T04:05:59.892Z,4.17
2019-01-09T04:08:28.673Z,6.73
2019-01-09T04:10:57.482Z,5.63
2019-01-09T04:13:26.376Z,11.13
2019-01-09T04:15:55.172Z,10.10
2019-01-09T04:18:24.415Z,7.87
2019-01-09T04:20:53.202Z,6.13
2019-01-09T04:23:22.027Z,5.13
2019-01-09T04:25:50.810Z,5.67
2019-01-09T04:28:19.700Z,9.43
2019-01-09T04:30:48.507Z,6.87
2019-01-09T04:33:17.289Z,7.90
2019-01-09T04:35:46.084Z,7.23
2019-01-09T04:38:15.070Z,8.07
2019-01-09T04:40:43.944Z,10.10
2019-01-09T04:43:12.729Z,10.77
2019-01-09T04:45:41.640Z,13.07
2019-01-09T04:48:10.723Z,5.70
2019-01-09T04:50:39.545Z,9.93
2019-01-09T04:53:10.081Z,10.97
2019-01-09T04:55:38.968Z,14.90
2019-01-09T04:58:07.830Z,9.60
2019-01-09T05:00:38.039Z,9.70
2019-01-09T05:03:06.841Z,16.60
2019-01-09T05:05:35.697Z,12.47
2019-01-09T05:08:04.506Z,12.70
2019-01-09T05:10:33.316Z,13.60
2019-01-09T05:13:02.386Z,15.73
2019-01-09T05:15:31.172Z,11.90
2019-01-09T05:18:00.209Z,12.23
2019-01-09T05:20:28.942Z,8.53
2019-01-09T05:22:57.756Z,7.50
2019-01-09T05:25:26.548Z,3.67
2019-01-09T05:27:55.551Z,7.50
2019-01-09T05:30:24.456Z,6.10
2019-01-09T05:32:53.261Z,4.23
2019-01-09T05:35:22.082Z,6.47
2019-01-09T05:37:51.077Z,6.47
2019-01-09T05:40:19.871Z,7.83
2019-01-09T05:42:48.670Z,8.17
2019-01-09T05:45:17.448Z,4.17
2019-01-09T05:47:46.479Z,8.10
2019-01-09T05:50:15.266Z,7.10
2019-01-09T05:52:44.042Z,12.77
2019-01-09T05:55:12.826Z,9.57
2019-01-09T05:57:41.795Z,11.60
2019-01-09T06:00:10.656Z,14.20
2019-01-09T06:02:39.452Z,14.07
2019-01-09T06:05:09.287Z,14.55
2019-01-09T06:07:38.099Z,15.77
2019-01-09T06:10:07.774Z,14.10
2019-01-09T06:12:36.599Z,11.10
2019-01-09T06:15:05.992Z,17.90
2019-01-09T06:17:34.959Z,15.30
2019-01-09T06:20:04.287Z,11.77
2019-01-09T06:22:33.152Z,13.10
2019-01-09T06:25:02.029Z,13.70
2019-01-09T06:27:30.959Z,8.75
2019-01-09T06:29:59.739Z,13.97
2019-01-09T06:32:28.547Z,13.90
2019-01-09T06:34:57.325Z,11.77
2019-01-09T06:37:27.700Z,12.87
2019-01-09T06:39:56.803Z,10.97
2019-01-09T06:42:25.611Z,12.27
2019-01-09T06:44:55.006Z,10.33
2019-01-09T06:47:23.917Z,9.37
2019-01-09T06:49:52.769Z,8.43
2019-01-09T06:52:21.627Z,7.23
2019-01-09T06:54:50.449Z,8.63
2019-01-09T06:57:19.478Z,12.40
2019-01-09T06:59:48.300Z,14.93
2019-01-09T07:02:17.165Z,14.20
2019-01-09T07:04:45.931Z,13.93
2019-01-09T07:07:14.807Z,18.70
2019-01-09T07:09:43.681Z,13.07
2019-01-09T07:12:12.538Z,9.00
2019-01-09T07:14:41.342Z,10.23
2019-01-09T07:17:10.193Z,17.83
2019-01-09T07:19:38.973Z,11.07
2019-01-09T07:22:07.827Z,13.00
2019-01-09T07:24:36.594Z,6.60
2019-01-09T07:27:05.514Z,9.40
2019-01-09T07:29:34.393Z,8.97
2019-01-09T07:32:03.168Z,10.00
2019-01-09T07:34:31.987Z,11.00
2019-01-09T07:37:00.894Z,6.43
2019-01-09T07:39:29.691Z,7.87
2019-01-09T07:41:58.720Z,10.10
2019-01-09T07:44:27.507Z,5.43
2019-01-09T07:46:56.382Z,9.50
2019-01-09T07:49:25.232Z,8.87
2019-01-09T07:51:54.033Z,9.28
2019-01-09T07:54:22.903Z,6.40
2019-01-09T07:56:51.759Z,11.13
2019-01-09T07:59:20.589Z,6.90
2019-01-09T08:01:49.373Z,10.40
2019-01-09T08:04:18.173Z,11.40
2019-01-09T08:06:47.235Z,12.23
2019-01-09T08:09:16.037Z,11.27
2019-01-09T08:11:46.580Z,10.93
2019-01-09T08:14:15.496Z,12.17
2019-01-09T08:16:44.362Z,13.43
2019-01-09T08:19:13.134Z,8.87
2019-01-09T08:21:41.924Z,11.43
2019-01-09T08:24:10.717Z,17.53
2019-01-09T08:26:39.693Z,14.70
2019-01-09T08:29:08.513Z,14.67
2019-01-09T08:31:37.342Z,13.77
2019-01-09T08:34:06.134Z,13.40
2019-01-09T08:36:35.124Z,12.43
2019-01-09T08:39:05.172Z,9.87
2019-01-09T08:41:34.261Z,14.10
2019-01-09T08:44:03.084Z,23.47
2019-01-09T08:46:32.117Z,13.27
2019-01-09T08:49:00.869Z,14.10
2019-01-09T08:51:29.716Z,18.90
2019-01-09T08:53:58.579Z,18.80
2019-01-09T08:56:27.404Z,14.50
2019-01-09T08:58:56.200Z,18.40
2019-01-09T09:01:25.003Z,15.27
2019-01-09T09:03:53.950Z,14.30
2019-01-09T09:06:22.886Z,14.57
2019-01-09T09:08:52.126Z,12.57
2019-01-09T09:11:20.946Z,16.83
2019-01-09T09:13:49.740Z,17.33
2019-01-09T09:16:18.567Z,22.23
2019-01-09T09:18:47.378Z,15.77
2019-01-09T09:21:16.183Z,17.23
2019-01-09T09:23:45.083Z,14.17
2019-01-09T09:26:17.876Z,26.23
2019-01-09T09:28:46.669Z,12.80
2019-01-09T09:31:15.556Z,16.93
2019-01-09T09:33:44.495Z,12.60
2019-01-09T09:36:13.348Z,18.00
2019-01-09T09:38:42.202Z,16.87
2019-01-09T09:41:11.233Z,15.43
2019-01-09T09:43:40.037Z,21.57
2019-01-09T09:46:08.850Z,18.27
2019-01-09T09:48:37.770Z,12.37
2019-01-09T09:51:06.602Z,20.23
2019-01-09T09:53:35.454Z,15.97
2019-01-09T09:56:04.739Z,13.67
2019-01-09T09:58:33.543Z,13.43
2019-01-09T10:01:02.473Z,16.50
2019-01-09T10:03:31.242Z,19.60
2019-01-09T10:06:00.128Z,18.47
2019-01-09T10:08:29.465Z,15.43
2019-01-09T10:10:58.842Z,18.93
2019-01-09T10:13:27.731Z,14.97
2019-01-09T10:15:56.507Z,19.80
2019-01-09T10:18:25.567Z,16.73
2019-01-09T10:20:54.426Z,14.60
2019-01-09T10:23:23.436Z,20.93
2019-01-09T10:25:52.329Z,18.13
2019-01-09T10:28:21.274Z,13.73
2019-01-09T10:30:50.193Z,12.70
2019-01-09T10:33:19.042Z,10.93
2019-01-09T10:35:47.902Z,9.97
2019-01-09T10:38:16.817Z,7.70
2019-01-09T10:40:45.606Z,9.53
2019-01-09T10:43:14.405Z,10.97
2019-01-09T10:45:43.200Z,15.70
2019-01-09T10:48:12.441Z,20.80
2019-01-09T10:50:41.262Z,12.17
2019-01-09T10:53:10.188Z,16.53
2019-01-09T10:55:38.971Z,20.60
2019-01-09T10:58:07.933Z,11.03
2019-01-09T11:00:36.869Z,14.83
2019-01-09T11:03:05.796Z,12.10
2019-01-09T11:05:34.811Z,11.03
2019-01-09T11:08:03.668Z,10.40
2019-01-09T11:10:32.410Z,12.80
2019-01-09T11:13:01.228Z,16.77
2019-01-09T11:15:30.043Z,18.43
2019-01-09T11:17:59.033Z,20.37
2019-01-09T11:20:27.819Z,22.93
2019-01-09T11:22:56.600Z,17.50
2019-01-09T11:25:27.612Z,16.60
2019-01-09T11:27:56.763Z,10.20
2019-01-09T11:30:25.691Z,15.97
2019-01-09T11:32:54.558Z,14.60
2019-01-09T11:35:24.969Z,16.95
2019-01-09T11:37:54.018Z,10.73
2019-01-09T11:40:23.067Z,16.10
2019-01-09T11:42:52.098Z,15.37
2019-01-09T11:45:21.201Z,10.93
2019-01-09T11:47:50.301Z,11.20
2019-01-09T11:50:19.125Z,17.77
2019-01-09T11:52:47.898Z,13.60
2019-01-09T11:55:16.762Z,11.13
2019-01-09T11:57:45.678Z,11.30
2019-01-09T12:00:18.383Z,13.67
2019-01-09T12:02:47.156Z,16.13
2019-01-09T12:05:16.031Z,16.30
2019-01-09T12:07:44.890Z,13.13
2019-01-09T12:10:15.358Z,14.93
2019-01-09T12:12:44.573Z,8.10
2019-01-09T12:15:15.029Z,11.90
2019-01-09T12:17:43.898Z,8.80
2019-01-09T12:20:14.746Z,12.00
2019-01-09T12:22:43.698Z,9.03
2019-01-09T12:25:13.040Z,5.87
2019-01-09T12:27:41.885Z,7.67
2019-01-09T12:30:17.129Z,10.77
2019-01-09T12:32:45.974Z,11.37
2019-01-09T12:35:15.045Z,10.53
2019-01-09T12:37:44.061Z,7.90
2019-01-09T12:40:13.539Z,8.43
2019-01-09T12:42:42.394Z,11.23
2019-01-09T12:45:12.749Z,7.80
2019-01-09T12:47:41.583Z,8.73
2019-01-09T12:50:14.269Z,11.53
2019-01-09T12:52:43.084Z,4.43
2019-01-09T12:55:12.452Z,7.40
2019-01-09T12:57:41.248Z,6.97
2019-01-09T13:00:21.532Z,6.20
2019-01-09T13:02:50.653Z,7.57
2019-01-09T13:05:19.827Z,8.37
2019-01-09T13:07:49.037Z,9.97
2019-01-09T13:10:17.911Z,7.63
2019-01-09T13:12:46.771Z,5.93
2019-01-09T13:15:15.803Z,8.48
2019-01-09T13:17:44.688Z,10.50
2019-01-09T13:20:13.795Z,12.67
2019-01-09T13:22:42.642Z,10.17
2019-01-09T13:25:13.927Z,4.77
2019-01-09T13:27:43.017Z,5.20
2019-01-09T13:30:14.779Z,7.97
2019-01-09T13:32:43.670Z,10.17
2019-01-09T13:35:12.594Z,9.03
2019-01-09T13:37:41.600Z,9.17
2019-01-09T13:40:13.777Z,8.58
2019-01-09T13:42:42.624Z,10.20
2019-01-09T13:45:14.139Z,8.63
2019-01-09T13:47:43.493Z,8.70
2019-01-09T13:50:12.876Z,6.57
2019-01-09T13:52:41.836Z,6.70
2019-01-09T13:55:11.867Z,10.80
2019-01-09T13:57:40.836Z,11.13
2019-01-09T14:00:13.077Z,6.70
2019-01-09T14:02:41.882Z,9.73
2019-01-09T14:05:10.979Z,9.67
2019-01-09T14:07:39.936Z,6.13
2019-01-09T14:10:11.259Z,11.50
2019-01-09T14:12:40.138Z,10.90
2019-01-09T14:15:11.332Z,6.80
2019-01-09T14:17:40.153Z,11.57
2019-01-09T14:20:10.919Z,7.20
2019-01-09T14:22:39.789Z,6.20
2019-01-09T14:25:10.323Z,7.50
2019-01-09T14:27:39.256Z,5.57
2019-01-09T14:30:11.774Z,5.97
2019-01-09T14:32:40.582Z,7.77
2019-01-09T14:35:09.456Z,8.17
2019-01-09T14:37:38.438Z,7.13
2019-01-09T14:40:09.920Z,5.10
2019-01-09T14:42:38.904Z,4.63
2019-01-09T14:45:08.845Z,5.60
2019-01-09T14:47:37.775Z,9.90
2019-01-09T14:50:09.662Z,7.03
2019-01-09T14:52:38.437Z,4.77
2019-01-09T14:55:08.057Z,6.33
2019-01-09T14:57:37.006Z,9.37
2019-01-09T15:00:09.705Z,4.50
2019-01-09T15:02:38.486Z,6.63
2019-01-09T15:05:08.746Z,10.43
2019-01-09T15:07:37.652Z,6.37
2019-01-09T15:10:09.588Z,8.33
2019-01-09T15:12:38.628Z,4.67
2019-01-09T15:15:09.634Z,6.33
2019-01-09T15:17:38.576Z,8.37
2019-01-09T15:20:08.947Z,6.00
2019-01-09T15:22:37.745Z,4.63
2019-01-09T15:25:08.030Z,4.50
2019-01-09T15:27:37.283Z,7.43
2019-01-09T15:30:09.523Z,5.77
2019-01-09T15:32:38.309Z,6.70
2019-01-09T15:35:08.569Z,6.53
2019-01-09T15:37:37.485Z,7.47
2019-01-09T15:40:53.502Z,8.87
2019-01-09T15:43:22.949Z,8.37
2019-01-09T15:45:51.740Z,5.40
2019-01-09T15:48:24.656Z,5.70
2019-01-09T15:50:54.814Z,5.80
2019-01-09T15:53:23.683Z,12.87
2019-01-09T15:55:54.131Z,5.20
2019-01-09T15:58:33.386Z,7.17
2019-01-09T16:01:00.187Z,10.93
2019-01-09T16:06:54.524Z,8.07
2019-01-09T16:09:27.728Z,8.67
2019-01-09T16:11:58.170Z,6.43
2019-01-09T16:14:27.304Z,8.10
2019-01-09T16:16:56.828Z,6.90
2019-01-09T16:19:33.284Z,6.27
2019-01-09T16:22:07.856Z,9.90
2019-01-09T16:24:39.878Z,4.13
2019-01-09T16:27:15.206Z,6.57
2019-01-09T16:29:46.951Z,6.93
2019-01-09T16:32:15.825Z,5.70
2019-01-09T16:34:58.396Z,4.00
2019-01-09T16:37:27.336Z,5.77
2019-01-09T16:39:59.696Z,6.40
2019-01-09T16:42:28.520Z,8.80
2019-01-09T16:44:59.466Z,6.87
2019-01-09T16:47:28.907Z,7.90
2019-01-09T16:49:57.705Z,6.73
2019-01-09T16:52:26.549Z,5.03
2019-01-09T16:54:55.441Z,10.07
2019-01-09T16:57:24.527Z,6.47
2019-01-09T16:59:53.295Z,6.03
2019-01-09T17:02:22.211Z,3.90
2019-01-09T17:04:51.082Z,5.80
2019-01-09T17:07:20.324Z,6.40
2019-01-09T17:09:49.091Z,9.13
2019-01-09T17:12:18.734Z,7.53
2019-01-09T17:14:47.508Z,6.23
2019-01-09T17:17:16.343Z,5.47
2019-01-09T17:19:45.143Z,10.30
2019-01-09T17:22:13.927Z,6.80
2019-01-09T17:24:42.741Z,11.40
2019-01-09T17:27:11.687Z,4.40
2019-01-09T17:29:43.901Z,7.33
2019-01-09T17:32:12.755Z,6.93
2019-01-09T17:34:41.531Z,10.83
2019-01-09T17:37:22.852Z,7.37
2019-01-09T17:39:51.885Z,9.63
2019-01-09T17:42:20.639Z,3.93
2019-01-09T17:44:49.476Z,8.93
2019-01-09T17:47:32.880Z,7.23
2019-01-09T17:50:09.234Z,10.13
2019-01-09T17:52:38.026Z,7.43
2019-01-09T17:55:08.950Z,13.00
2019-01-09T17:57:37.913Z,5.63
2019-01-09T18:00:10.987Z,11.93
2019-01-09T18:02:39.786Z,6.80
2019-01-09T18:05:08.943Z,6.07
2019-01-09T18:07:37.796Z,4.53
2019-01-09T18:10:10.893Z,9.10
2019-01-09T18:12:39.730Z,6.43
2019-01-09T18:15:09.841Z,9.83
2019-01-09T18:17:40.596Z,5.80
2019-01-09T18:20:10.931Z,8.57
2019-01-09T18:22:42.124Z,8.10
2019-01-09T18:25:14.819Z,5.40
2019-01-09T18:27:45.000Z,7.53
2019-01-09T18:30:34.727Z,6.67
2019-01-09T18:33:22.973Z,6.80
2019-01-09T18:36:28.821Z,6.20
2019-01-09T18:39:35.647Z,8.60
2019-01-09T18:42:51.499Z,7.60
2019-01-09T18:45:35.761Z,10.97
2019-01-09T18:48:35.718Z,9.70
2019-01-09T18:51:24.469Z,8.73
2019-01-09T18:53:57.164Z,9.57
2019-01-09T18:56:27.084Z,3.63
2019-01-09T18:59:28.265Z,5.43
2019-01-09T19:02:17.565Z,8.47
2019-01-09T19:04:46.129Z,8.80
2019-01-09T19:07:42.447Z,8.73
2019-01-09T19:10:18.447Z,5.07
2019-01-09T19:12:50.597Z,8.47
2019-01-09T19:15:21.725Z,5.87
2019-01-09T19:17:50.718Z,7.20
2019-01-09T19:20:19.629Z,10.37
2019-01-09T19:22:49.019Z,8.97
2019-01-09T19:25:21.498Z,5.63
2019-01-09T19:27:51.099Z,7.50
2019-01-09T19:30:23.764Z,5.83
2019-01-09T19:32:52.811Z,8.63
2019-01-09T19:35:21.850Z,7.13
2019-01-09T19:37:51.712Z,10.47
2019-01-09T19:40:23.598Z,7.00
2019-01-09T19:42:52.484Z,12.43
2019-01-09T19:45:22.388Z,11.40
2019-01-09T19:47:54.795Z,7.53
2019-01-09T19:50:24.762Z,8.83
2019-01-09T19:52:54.311Z,7.83
2019-01-09T19:55:25.271Z,9.87
2019-01-09T19:57:55.280Z,9.20
2019-01-09T20:00:25.766Z,12.97
2019-01-09T20:02:55.068Z,8.73
2019-01-09T20:05:24.441Z,8.67
2019-01-09T20:07:57.493Z,11.47
2019-01-09T20:10:29.649Z,11.97
2019-01-09T20:13:00.004Z,8.97
2019-01-09T20:15:29.159Z,12.00
2019-01-09T20:17:59.239Z,8.87
2019-01-09T20:20:29.985Z,11.27
2019-01-09T20:22:58.973Z,10.07
2019-01-09T20:25:30.168Z,7.33
2019-01-09T20:27:59.296Z,10.87
2019-01-09T20:30:30.130Z,9.77
2019-01-09T20:33:01.585Z,10.20
2019-01-09T20:35:30.512Z,8.63
2019-01-09T20:38:00.531Z,7.93
2019-01-09T20:40:29.901Z,11.90
2019-01-09T20:42:58.800Z,8.57
2019-01-09T20:45:28.058Z,14.47
2019-01-09T20:47:57.107Z,6.10
2019-01-09T20:50:28.811Z,9.67
2019-01-09T20:52:57.710Z,7.70
2019-01-09T20:55:26.808Z,5.70
2019-01-09T20:57:56.150Z,7.80
2019-01-09T21:00:27.424Z,10.33
2019-01-09T21:03:00.179Z,9.87
2019-01-09T21:05:32.587Z,9.47
2019-01-09T21:08:01.544Z,10.73
2019-01-09T21:10:30.428Z,7.27
2019-01-09T21:13:01.722Z,13.67
2019-01-09T21:15:31.095Z,10.27
2019-01-09T21:18:00.233Z,10.17
2019-01-09T21:20:29.363Z,8.63
2019-01-09T21:22:58.300Z,7.93
2019-01-09T21:25:27.552Z,9.53
2019-01-09T21:27:56.830Z,8.77
2019-01-09T21:30:26.068Z,10.90
2019-01-09T21:32:55.273Z,8.47
2019-01-09T21:35:24.181Z,7.47
2019-01-09T21:37:53.194Z,12.73
2019-01-09T21:40:24.445Z,9.60
2019-01-09T21:42:55.338Z,8.30
2019-01-09T21:45:24.513Z,13.33
2019-01-09T21:47:53.817Z,11.23
2019-01-09T21:50:27.772Z,6.23
2019-01-09T21:52:56.773Z,10.87
2019-01-09T21:55:25.723Z,8.33
2019-01-09T21:57:55.007Z,10.33
2019-01-09T22:00:25.806Z,11.03
2019-01-09T22:02:54.718Z,6.90
2019-01-09T22:05:25.221Z,6.63
2019-01-09T22:07:54.579Z,8.47
2019-01-09T22:10:26.275Z,11.70
2019-01-09T22:12:56.697Z,8.70
2019-01-09T22:15:26.071Z,11.80
2019-01-09T22:17:55.118Z,11.83
2019-01-09T22:20:24.481Z,7.93
2019-01-09T22:22:54.679Z,6.70
2019-01-09T22:25:23.899Z,5.70
2019-01-09T22:27:52.924Z,7.10
2019-01-09T22:30:26.276Z,8.10
2019-01-09T22:32:55.600Z,8.67
2019-01-09T22:35:25.276Z,8.93
2019-01-09T22:37:54.741Z,9.20
2019-01-09T22:40:23.887Z,6.37
2019-01-09T22:42:52.771Z,4.17
2019-01-09T22:45:22.683Z,4.03
2019-01-09T22:47:51.743Z,7.97
2019-01-09T22:50:22.287Z,7.57
2019-01-09T22:52:52.437Z,6.47
2019-01-09T22:55:21.418Z,9.17
2019-01-09T22:57:50.280Z,6.43
2019-01-09T23:00:52.277Z,6.70
2019-01-09T23:03:21.308Z,4.87
2019-01-09T23:05:50.473Z,2.77
2019-01-09T23:08:19.592Z,3.70
2019-01-09T23:10:54.280Z,4.00
2019-01-09T23:13:19.680Z,4.37
2019-01-09T23:15:50.416Z,5.30
2019-01-09T23:18:19.623Z,12.97
2019-01-09T23:20:48.524Z,5.07
2019-01-09T23:23:17.334Z,8.37
2019-01-09T23:25:46.124Z,6.93
2019-01-09T23:28:15.147Z,8.97
2019-01-09T23:30:44.037Z,7.80
2019-01-09T23:33:13.139Z,2.00
2019-01-09T23:35:42.449Z,5.97
2019-01-09T23:38:11.414Z,5.57
2019-01-09T23:40:40.438Z,12.83
2019-01-09T23:43:09.943Z,9.53
2019-01-09T23:45:41.930Z,4.20
2019-01-09T23:48:13.695Z,3.20
2019-01-09T23:50:42.562Z,4.13
2019-01-09T23:53:11.427Z,5.73
2019-01-09T23:55:40.274Z,7.27
2019-01-09T23:58:10.462Z,11.57
